This is the latest recevied weather packets stored in our database for station/object DL2GPS-3. If no packets are shown the sender has not sent any weather packets the latest 10 day(s).
| Time | Temp. | Humidity | Pressure | Rain* | Wind** | Luminosity | Snow |
|---|---|---|---|---|---|---|---|
| 1777776580 | 12.22° C | 91% | 1018.1 hPa | - | - | - | - |
| 1777775976 | 12.22° C | 86% | 1018.1 hPa | - | - | - | - |
| 1777775371 | 12.22° C | 85% | 1018.2 hPa | - | - | - | - |
| 1777774766 | 12.78° C | 82% | 1018.3 hPa | - | - | - | - |
| 1777774160 | 12.78° C | 83% | 1018.4 hPa | - | - | - | - |
| 1777773555 | 12.78° C | 85% | 1018.6 hPa | - | - | - | - |
| 1777772950 | 12.78° C | 84% | 1018.5 hPa | - | - | - | - |
| 1777772345 | 12.78° C | 83% | 1018.5 hPa | - | - | - | - |
| 1777771739 | 12.22° C | 86% | 1018.5 hPa | - | - | - | - |
| 1777771135 | 12.22° C | 84% | 1018.7 hPa | - | - | - | - |
| 1777770530 | 12.78° C | 86% | 1018.7 hPa | - | - | - | - |
| 1777769926 | 12.78° C | 84% | 1018.8 hPa | - | - | - | - |
| 1777769321 | 13.89° C | 79% | 1018.8 hPa | - | - | - | - |
| 1777768715 | 13.89° C | 80% | 1018.9 hPa | - | - | - | - |
| 1777768110 | 13.89° C | 80% | 1019 hPa | - | - | - | - |
| 1777767505 | 13.89° C | 82% | 1019.1 hPa | - | - | - | - |
| 1777766899 | 13.89° C | 81% | 1019.2 hPa | - | - | - | - |
| 1777766295 | 13.89° C | 81% | 1019.2 hPa | - | - | - | - |
| 1777765690 | 13.89° C | 80% | 1019.2 hPa | - | - | - | - |
| 1777765085 | 13.89° C | 81% | 1019.3 hPa | - | - | - | - |
| 1777764479 | 13.89° C | 81% | 1019.4 hPa | - | - | - | - |
| 1777763875 | 13.33° C | 83% | 1019.5 hPa | - | - | - | - |
| 1777763270 | 12.78° C | 84% | 1019.6 hPa | - | - | - | - |
| 1777762665 | 12.78° C | 83% | 1019.6 hPa | - | - | - | - |
| 1777762059 | 13.33° C | 80% | 1019.7 hPa | - | - | - | - |
* Rain since midnight (hover to see other rain measurements)
** Current wind speed in m/s (hover to see current wind gust speed)